createdAt,value
2018-12-27T00:01:30.247Z,100850.41
2018-12-27T00:03:59.778Z,100849.92
2018-12-27T00:06:29.225Z,100849.59
2018-12-27T00:08:58.724Z,100847.38
2018-12-27T00:11:28.394Z,100852.28
2018-12-27T00:13:58.316Z,100842.00
2018-12-27T00:16:27.760Z,100837.47
2018-12-27T00:18:57.334Z,100842.00
2018-12-27T00:21:26.942Z,100837.95
2018-12-27T00:23:56.389Z,100839.79
2018-12-27T00:26:25.873Z,100840.65
2018-12-27T00:28:55.389Z,100838.45
2018-12-27T00:31:24.896Z,100838.81
2018-12-27T00:33:55.083Z,100835.27
2018-12-27T00:36:24.633Z,100836.13
2018-12-27T00:38:54.152Z,100831.71
2018-12-27T00:41:23.756Z,100836.61
2018-12-27T00:43:53.260Z,100838.93
2018-12-27T00:46:22.853Z,100842.97
2018-12-27T00:48:52.501Z,100844.69
2018-12-27T00:51:22.032Z,100849.22
2018-12-27T00:53:51.631Z,100853.25
2018-12-27T00:56:21.163Z,100853.74
2018-12-27T00:58:51.062Z,100849.70
2018-12-27T01:01:20.696Z,100844.31
2018-12-27T01:03:52.248Z,100844.69
2018-12-27T01:06:21.959Z,100844.80
2018-12-27T01:08:51.568Z,100838.45
2018-12-27T01:11:21.271Z,100845.66
2018-12-27T01:13:50.898Z,100842.48
2018-12-27T01:16:20.430Z,100842.11
2018-12-27T01:18:50.061Z,100838.08
2018-12-27T01:21:19.570Z,100835.38
2018-12-27T01:23:49.083Z,100834.55
2018-12-27T01:26:18.653Z,100829.99
2018-12-27T01:28:48.318Z,100832.20
2018-12-27T01:31:17.872Z,100831.71
2018-12-27T01:33:47.399Z,100827.30
2018-12-27T01:36:16.939Z,100816.53
2018-12-27T01:38:46.627Z,100822.77
2018-12-27T01:41:16.199Z,100815.70
2018-12-27T01:43:45.985Z,100821.91
2018-12-27T01:46:15.767Z,100812.00
2018-12-27T01:48:45.422Z,100806.28
2018-12-27T01:51:15.233Z,100810.81
2018-12-27T01:53:44.888Z,100810.32
2018-12-27T01:56:14.553Z,100813.84
2018-12-27T01:58:44.458Z,100822.44
2018-12-27T02:01:14.050Z,100825.95
2018-12-27T02:03:43.635Z,100825.95
2018-12-27T02:06:13.303Z,100802.41
2018-12-27T02:08:42.857Z,100820.56
2018-12-27T02:11:12.466Z,100822.92
2018-12-27T02:13:42.113Z,100824.27
2018-12-27T02:16:11.663Z,100825.12
2018-12-27T02:18:41.216Z,100819.75
2018-12-27T02:21:10.750Z,100818.88
2018-12-27T02:23:40.235Z,100817.88
2018-12-27T02:26:09.730Z,100822.92
2018-12-27T02:28:39.275Z,100827.82
2018-12-27T02:31:08.828Z,100825.12
2018-12-27T02:33:38.352Z,100826.96
2018-12-27T02:36:07.931Z,100824.27
2018-12-27T02:38:37.477Z,100829.66
2018-12-27T02:41:07.032Z,100829.99
2018-12-27T02:43:36.641Z,100821.09
2018-12-27T02:46:06.339Z,100817.53
2018-12-27T02:48:35.900Z,100818.02
2018-12-27T02:51:05.447Z,100815.82
2018-12-27T02:53:34.941Z,100807.26
2018-12-27T02:56:04.628Z,100814.84
2018-12-27T02:58:34.473Z,100813.98
2018-12-27T03:01:03.985Z,100816.19
2018-12-27T03:03:33.642Z,100816.68
2018-12-27T03:06:03.229Z,100809.95
2018-12-27T03:08:32.727Z,100804.08
2018-12-27T03:11:02.322Z,100801.02
2018-12-27T03:13:31.904Z,100800.89
2018-12-27T03:16:01.476Z,100804.08
2018-12-27T03:18:31.205Z,100806.77
2018-12-27T03:21:00.878Z,100801.02
2018-12-27T03:23:30.512Z,100803.70
2018-12-27T03:26:00.089Z,100806.03
2018-12-27T03:28:31.142Z,100796.60
2018-12-27T03:31:00.684Z,100805.20
2018-12-27T03:33:30.193Z,100808.38
2018-12-27T03:35:59.790Z,100809.72
2018-12-27T03:38:29.322Z,100803.86
2018-12-27T03:40:58.805Z,100798.95
2018-12-27T03:43:28.340Z,100806.17
2018-12-27T03:45:57.907Z,100802.63
2018-12-27T03:48:27.647Z,100808.86
2018-12-27T03:50:57.262Z,100808.86
2018-12-27T03:53:26.716Z,100803.11
2018-12-27T03:55:56.194Z,100810.21
2018-12-27T03:58:25.808Z,100812.05
2018-12-27T04:00:55.426Z,100817.44
2018-12-27T04:03:25.082Z,100814.40
2018-12-27T04:05:54.858Z,100817.44
2018-12-27T04:08:24.519Z,100815.59
2018-12-27T04:10:54.105Z,100805.80
2018-12-27T04:13:23.664Z,100803.97
2018-12-27T04:15:53.113Z,100803.48
2018-12-27T04:18:22.636Z,100805.69
2018-12-27T04:20:51.990Z,100808.38
2018-12-27T04:23:22.031Z,100808.86
2018-12-27T04:25:52.076Z,100812.91
2018-12-27T04:28:21.559Z,100814.10
2018-12-27T04:30:51.750Z,100812.75
2018-12-27T04:33:21.516Z,100809.72
2018-12-27T04:35:53.425Z,100808.38
2018-12-27T04:38:22.971Z,100811.93
2018-12-27T04:40:52.348Z,100807.89
2018-12-27T04:43:23.284Z,100798.47
2018-12-27T04:45:52.984Z,100801.98
2018-12-27T04:48:22.460Z,100800.64
2018-12-27T04:50:52.068Z,100806.03
2018-12-27T04:53:21.507Z,100806.89
2018-12-27T04:55:50.945Z,100812.27
2018-12-27T04:58:20.378Z,100815.45
2018-12-27T05:00:49.770Z,100815.45
2018-12-27T05:03:19.291Z,100815.45
2018-12-27T05:05:49.051Z,100817.16
2018-12-27T05:08:18.714Z,100819.00
2018-12-27T05:10:48.173Z,100818.02
2018-12-27T05:13:17.626Z,100819.86
2018-12-27T05:15:47.046Z,100819.86
2018-12-27T05:18:16.384Z,100820.34
2018-12-27T05:20:45.785Z,100819.86
2018-12-27T05:23:15.249Z,100820.72
2018-12-27T05:25:44.616Z,100810.92
2018-12-27T05:28:14.090Z,100817.16
2018-12-27T05:30:43.504Z,100816.19
2018-12-27T05:33:13.108Z,100812.64
2018-12-27T05:35:42.592Z,100802.84
2018-12-27T05:38:12.095Z,100800.03
2018-12-27T05:40:41.554Z,100795.63
2018-12-27T05:43:11.222Z,100799.17
2018-12-27T05:45:40.795Z,100799.55
2018-12-27T05:48:10.185Z,100802.73
2018-12-27T05:50:39.645Z,100808.23
2018-12-27T05:53:09.050Z,100813.50
2018-12-27T05:55:38.499Z,100814.84
2018-12-27T05:58:07.884Z,100802.73
2018-12-27T06:00:37.403Z,100809.46
2018-12-27T06:03:06.806Z,100811.30
2018-12-27T06:05:36.369Z,100816.68
2018-12-27T06:08:05.931Z,100820.72
2018-12-27T06:10:35.367Z,100813.98
2018-12-27T06:13:04.741Z,100820.72
2018-12-27T06:15:34.096Z,100817.16
2018-12-27T06:18:03.493Z,100818.52
2018-12-27T06:20:32.974Z,100815.82
2018-12-27T06:23:02.596Z,100815.33
2018-12-27T06:25:32.206Z,100813.50
2018-12-27T06:28:01.643Z,100812.64
2018-12-27T06:30:31.131Z,100820.72
2018-12-27T06:33:00.634Z,100817.53
2018-12-27T06:35:30.122Z,100807.26
2018-12-27T06:37:59.620Z,100797.34
2018-12-27T06:40:29.143Z,100798.32
2018-12-27T06:42:58.567Z,100807.26
2018-12-27T06:45:28.108Z,100804.56
2018-12-27T06:47:57.635Z,100799.66
2018-12-27T06:50:27.025Z,100816.19
2018-12-27T06:52:56.414Z,100806.89
2018-12-27T06:55:25.956Z,100807.26
2018-12-27T06:57:55.317Z,100799.66
2018-12-27T07:00:24.692Z,100809.95
2018-12-27T07:02:54.090Z,100801.02
2018-12-27T07:05:23.537Z,100801.02
2018-12-27T07:07:52.995Z,100798.80
2018-12-27T07:10:22.586Z,100794.43
2018-12-27T07:12:52.092Z,100793.08
2018-12-27T07:15:21.566Z,100790.88
2018-12-27T07:17:51.070Z,100791.73
2018-12-27T07:20:20.600Z,100796.60
2018-12-27T07:22:50.110Z,100804.34
2018-12-27T07:25:19.457Z,100796.27
2018-12-27T07:27:49.049Z,100796.75
2018-12-27T07:30:18.562Z,100797.61
2018-12-27T07:32:48.146Z,100798.09
2018-12-27T07:35:17.562Z,100799.93
2018-12-27T07:37:47.038Z,100793.20
2018-12-27T07:40:16.401Z,100786.95
2018-12-27T07:42:45.804Z,100784.27
2018-12-27T07:45:15.296Z,100780.23
2018-12-27T07:47:44.776Z,100784.78
2018-12-27T07:50:14.328Z,100786.13
2018-12-27T07:52:43.887Z,100782.09
2018-12-27T07:55:13.354Z,100779.40
2018-12-27T07:57:42.721Z,100778.54
2018-12-27T08:00:12.132Z,100772.27
2018-12-27T08:02:41.474Z,100789.31
2018-12-27T08:05:10.995Z,100799.59
2018-12-27T08:07:40.505Z,100797.84
2018-12-27T08:10:10.020Z,100799.19
2018-12-27T08:12:39.476Z,100803.71
2018-12-27T08:15:08.921Z,100803.71
2018-12-27T08:17:38.428Z,100804.20
2018-12-27T08:20:08.225Z,100791.26
2018-12-27T08:22:37.855Z,100792.09
2018-12-27T08:25:07.632Z,100793.43
2018-12-27T08:27:37.132Z,100801.51
2018-12-27T08:30:08.032Z,100800.68
2018-12-27T08:32:37.396Z,100796.13
2018-12-27T08:35:11.363Z,100801.51
2018-12-27T08:37:38.279Z,100804.20
2018-12-27T08:40:07.628Z,100807.75
2018-12-27T08:42:37.035Z,100800.68
2018-12-27T08:45:06.457Z,100806.89
2018-12-27T08:47:35.803Z,100809.95
2018-12-27T08:50:06.209Z,100811.79
2018-12-27T08:52:35.625Z,100805.92
2018-12-27T08:55:05.070Z,100809.95
2018-12-27T08:57:34.464Z,100803.23
2018-12-27T09:00:04.235Z,100801.02
2018-12-27T09:02:33.681Z,100801.88
2018-12-27T09:05:03.045Z,100796.98
2018-12-27T09:07:32.546Z,100804.12
2018-12-27T09:10:01.932Z,100797.73
2018-12-27T09:12:31.340Z,100800.42
2018-12-27T09:15:00.776Z,100806.66
2018-12-27T09:17:30.150Z,100803.11
2018-12-27T09:19:59.504Z,100807.15
2018-12-27T09:22:28.946Z,100797.23
2018-12-27T09:24:58.390Z,100794.55
2018-12-27T09:27:27.811Z,100793.69
2018-12-27T09:29:57.255Z,100790.02
2018-12-27T09:32:26.774Z,100785.13
2018-12-27T09:34:56.120Z,100781.09
2018-12-27T09:37:25.606Z,100775.70
2018-12-27T09:39:55.176Z,100776.07
2018-12-27T09:42:24.561Z,100777.05
2018-12-27T09:44:54.121Z,100771.02
2018-12-27T09:47:23.494Z,100772.73
2018-12-27T09:49:52.907Z,100773.23
2018-12-27T09:52:22.379Z,100772.25
2018-12-27T09:54:51.974Z,100772.25
2018-12-27T09:57:21.414Z,100771.77
2018-12-27T09:59:51.036Z,100765.38
2018-12-27T10:02:20.537Z,100764.55
2018-12-27T10:04:50.111Z,100757.81
2018-12-27T10:07:19.660Z,100762.67
2018-12-27T10:09:49.022Z,100758.64
2018-12-27T10:12:18.445Z,100766.72
2018-12-27T10:14:47.933Z,100768.44
2018-12-27T10:17:17.399Z,100760.84
2018-12-27T10:19:46.834Z,100761.22
2018-12-27T10:22:16.444Z,100753.13
2018-12-27T10:24:45.946Z,100757.52
2018-12-27T10:27:15.474Z,100744.57
2018-12-27T10:29:44.952Z,100743.72
2018-12-27T10:32:14.353Z,100742.22
2018-12-27T10:34:44.021Z,100741.36
2018-12-27T10:37:13.682Z,100744.91
2018-12-27T10:39:43.306Z,100739.52
2018-12-27T10:42:12.746Z,100738.66
2018-12-27T10:44:42.387Z,100730.59
2018-12-27T10:47:12.151Z,100730.95
2018-12-27T10:49:41.669Z,100723.37
2018-12-27T10:52:11.152Z,100721.53
2018-12-27T10:54:40.869Z,100719.33
2018-12-27T10:57:10.871Z,100720.19
2018-12-27T10:59:40.580Z,100717.98
2018-12-27T11:02:10.487Z,100716.14
2018-12-27T11:04:41.531Z,100721.05
2018-12-27T11:07:11.157Z,100717.49
2018-12-27T11:09:40.821Z,100717.49
2018-12-27T11:12:10.240Z,100717.00
2018-12-27T11:14:39.799Z,100719.70
2018-12-27T11:17:09.407Z,100717.86
2018-12-27T11:19:39.347Z,100710.27
2018-12-27T11:22:11.051Z,100701.70
2018-12-27T11:24:40.742Z,100701.70
2018-12-27T11:27:10.352Z,100705.75
2018-12-27T11:29:40.155Z,100705.75
2018-12-27T11:32:09.723Z,100694.45
2018-12-27T11:34:39.361Z,100705.75
2018-12-27T11:37:09.039Z,100699.02
2018-12-27T11:39:38.550Z,100693.11
2018-12-27T11:42:08.126Z,100693.11
2018-12-27T11:44:37.602Z,100698.49
2018-12-27T11:47:07.358Z,100688.73
2018-12-27T11:49:37.139Z,100686.89
2018-12-27T11:52:06.770Z,100686.89
2018-12-27T11:54:36.650Z,100685.55
2018-12-27T11:57:06.430Z,100677.47
2018-12-27T11:59:36.233Z,100671.72
2018-12-27T12:02:05.856Z,100667.03
2018-12-27T12:04:35.434Z,100674.25
2018-12-27T12:07:05.302Z,100675.97
2018-12-27T12:09:34.974Z,100679.16
2018-12-27T12:12:04.751Z,100673.77
2018-12-27T12:14:34.179Z,100678.66
2018-12-27T12:17:03.888Z,100671.78
2018-12-27T12:19:33.652Z,100675.82
2018-12-27T12:22:03.086Z,100676.67
2018-12-27T12:24:32.630Z,100676.67
2018-12-27T12:27:02.235Z,100679.37
2018-12-27T12:29:32.025Z,100669.95
2018-12-27T12:32:01.439Z,100669.45
2018-12-27T12:34:31.008Z,100669.83
2018-12-27T12:37:01.328Z,100665.41
2018-12-27T12:39:31.000Z,100665.78
2018-12-27T12:42:00.617Z,100666.27
2018-12-27T12:44:30.019Z,100666.27
2018-12-27T12:46:59.724Z,100675.55
2018-12-27T12:49:29.403Z,100668.48
2018-12-27T12:51:58.949Z,100673.98
2018-12-27T12:54:28.886Z,100674.46
2018-12-27T12:59:26.861Z,100665.23
2018-12-27T13:01:56.822Z,100667.02
2018-12-27T13:04:26.316Z,100666.80
2018-12-27T13:06:55.940Z,100673.33
2018-12-27T13:09:25.524Z,100676.94
2018-12-27T13:11:55.149Z,100677.71
2018-12-27T13:14:24.806Z,100680.97
2018-12-27T13:16:54.429Z,100677.98
2018-12-27T13:19:24.091Z,100682.17
2018-12-27T13:21:54.185Z,100672.58
2018-12-27T13:24:23.665Z,100677.60
2018-12-27T13:26:53.284Z,100679.83
2018-12-27T13:29:22.970Z,100677.06
2018-12-27T13:31:52.558Z,100669.16
2018-12-27T13:34:22.269Z,100668.16
2018-12-27T13:36:51.896Z,100665.12
2018-12-27T13:39:21.644Z,100663.87
2018-12-27T13:41:51.484Z,100658.49
2018-12-27T13:44:20.968Z,100655.42
2018-12-27T13:46:50.516Z,100652.86
2018-12-27T13:49:20.077Z,100659.66
2018-12-27T13:51:49.555Z,100652.22
2018-12-27T13:54:19.191Z,100654.99
2018-12-27T13:56:49.072Z,100651.09
2018-12-27T13:59:18.808Z,100646.29
2018-12-27T14:01:48.408Z,100645.55
2018-12-27T14:04:17.804Z,100643.99
2018-12-27T14:06:47.331Z,100647.63
2018-12-27T14:09:16.782Z,100639.31
2018-12-27T14:11:46.220Z,100643.57
2018-12-27T14:14:16.786Z,100641.97
2018-12-27T14:16:46.497Z,100643.06
2018-12-27T14:19:15.945Z,100640.45
2018-12-27T14:21:45.621Z,100638.48
2018-12-27T14:24:15.038Z,100632.37
2018-12-27T14:26:45.003Z,100622.70
2018-12-27T14:29:14.660Z,100625.25
2018-12-27T14:31:44.275Z,100630.36
2018-12-27T14:34:13.700Z,100624.73
2018-12-27T14:36:43.322Z,100616.03
2018-12-27T14:39:12.917Z,100614.06
2018-12-27T14:41:42.441Z,100620.52
2018-12-27T14:44:11.941Z,100609.13
2018-12-27T14:46:42.063Z,100611.22
2018-12-27T14:49:11.957Z,100607.05
2018-12-27T14:51:41.661Z,100607.27
2018-12-27T14:54:13.387Z,100602.11
2018-12-27T14:56:43.182Z,100603.83
2018-12-27T14:59:13.211Z,100600.99
2018-12-27T15:01:43.097Z,100604.91
2018-12-27T15:04:12.775Z,100602.45
2018-12-27T15:06:47.139Z,100605.48
2018-12-27T15:09:13.501Z,100599.13
2018-12-27T15:11:43.053Z,100599.83
2018-12-27T15:14:12.467Z,100601.40
2018-12-27T15:16:42.091Z,100602.75
2018-12-27T15:19:11.788Z,100603.94
2018-12-27T15:21:41.210Z,100597.59
2018-12-27T15:24:10.778Z,100601.47
2018-12-27T15:26:40.273Z,100597.84
2018-12-27T15:29:09.826Z,100595.86
2018-12-27T15:31:39.271Z,100597.58
2018-12-27T15:34:08.833Z,100592.57
2018-12-27T15:36:38.350Z,100592.91
2018-12-27T15:39:08.280Z,100593.28
2018-12-27T15:41:37.682Z,100598.88
2018-12-27T15:44:07.282Z,100605.94
2018-12-27T15:46:36.994Z,100600.45
2018-12-27T15:49:06.472Z,100600.78
2018-12-27T15:51:35.979Z,100604.81
2018-12-27T15:54:05.368Z,100601.52
2018-12-27T15:56:34.950Z,100602.23
2018-12-27T15:59:04.464Z,100610.67
2018-12-27T16:01:35.311Z,100612.02
2018-12-27T16:04:04.702Z,100605.63
2018-12-27T16:06:34.178Z,100624.95
2018-12-27T16:09:04.839Z,100622.41
2018-12-27T16:11:34.300Z,100619.83
2018-12-27T16:14:03.718Z,100618.27
2018-12-27T16:16:33.127Z,100623.42
2018-12-27T16:19:02.610Z,100623.20
2018-12-27T16:21:32.037Z,100624.69
2018-12-27T16:24:01.448Z,100620.06
2018-12-27T16:26:30.876Z,100618.95
2018-12-27T16:29:00.309Z,100621.42
2018-12-27T16:31:30.259Z,100618.17
2018-12-27T16:34:00.949Z,100615.25
2018-12-27T16:36:30.400Z,100609.66
2018-12-27T16:38:59.910Z,100612.98
2018-12-27T16:41:29.699Z,100618.09
2018-12-27T16:43:59.553Z,100620.56
2018-12-27T16:46:28.962Z,100621.20
2018-12-27T16:48:58.443Z,100614.25
2018-12-27T16:51:27.856Z,100618.91
2018-12-27T16:53:57.287Z,100611.48
2018-12-27T16:56:26.768Z,100607.23
2018-12-27T16:58:56.281Z,100609.69
2018-12-27T17:01:25.718Z,100610.66
2018-12-27T17:03:55.154Z,100620.55
2018-12-27T17:06:24.606Z,100619.84
2018-12-27T17:08:54.288Z,100611.55
2018-12-27T17:11:24.190Z,100613.86
2018-12-27T17:13:53.688Z,100614.02
2018-12-27T17:16:23.082Z,100613.78
2018-12-27T17:18:52.567Z,100614.75
2018-12-27T17:21:22.058Z,100608.19
2018-12-27T17:23:51.584Z,100619.05
2018-12-27T17:26:21.042Z,100612.95
2018-12-27T17:28:50.765Z,100612.61
2018-12-27T17:31:20.153Z,100610.05
2018-12-27T17:33:49.620Z,100610.91
2018-12-27T17:36:19.021Z,100608.21
2018-12-27T17:38:48.453Z,100606.16
2018-12-27T17:41:17.897Z,100604.81
2018-12-27T17:43:47.317Z,100612.39
2018-12-27T17:46:16.851Z,100608.84
2018-12-27T17:48:46.272Z,100608.84
2018-12-27T17:51:15.706Z,100609.33
2018-12-27T17:53:45.195Z,100607.98
2018-12-27T17:56:14.782Z,100602.61
2018-12-27T17:58:44.206Z,100603.09
2018-12-27T18:01:13.673Z,100601.75
2018-12-27T18:03:43.276Z,100604.10
2018-12-27T18:06:12.780Z,100613.98
2018-12-27T18:08:42.313Z,100608.73
2018-12-27T18:11:12.078Z,100609.25
2018-12-27T18:13:41.684Z,100614.62
2018-12-27T18:16:11.168Z,100612.91
2018-12-27T18:18:40.687Z,100613.87
2018-12-27T18:21:11.402Z,100610.47
2018-12-27T18:23:40.964Z,100611.44
2018-12-27T18:26:10.597Z,100609.76
2018-12-27T18:28:40.218Z,100608.90
2018-12-27T18:31:09.962Z,100610.39
2018-12-27T18:33:39.629Z,100614.05
2018-12-27T18:36:09.000Z,100608.30
2018-12-27T18:38:38.403Z,100609.78
2018-12-27T18:41:07.983Z,100609.41
2018-12-27T18:43:37.393Z,100605.16
2018-12-27T18:46:06.894Z,100603.92
2018-12-27T18:48:36.294Z,100611.98
2018-12-27T18:51:05.841Z,100613.43
2018-12-27T18:53:35.501Z,100614.92
2018-12-27T18:56:05.141Z,100619.44
2018-12-27T18:58:34.778Z,100621.41
2018-12-27T19:01:04.464Z,100619.20
2018-12-27T19:03:34.149Z,100616.66
2018-12-27T19:06:03.805Z,100626.17
2018-12-27T19:08:33.461Z,100626.69
2018-12-27T19:11:38.719Z,100624.48
2018-12-27T19:14:08.360Z,100626.45
2018-12-27T19:16:37.877Z,100635.85
2018-12-27T19:19:07.486Z,100636.96
2018-12-27T19:21:54.625Z,100634.87
2018-12-27T19:24:24.235Z,100639.38
2018-12-27T19:26:53.843Z,100638.19
2018-12-27T19:29:23.690Z,100639.15
2018-12-27T19:31:53.312Z,100643.32
2018-12-27T19:34:23.752Z,100646.48
2018-12-27T19:36:53.233Z,100649.66
2018-12-27T19:39:22.638Z,100650.17
2018-12-27T19:41:52.124Z,100658.71
2018-12-27T19:44:21.734Z,100650.66
2018-12-27T19:46:52.272Z,100652.97
2018-12-27T19:49:25.182Z,100647.59
2018-12-27T19:51:54.683Z,100649.94
2018-12-27T19:54:24.097Z,100650.91
2018-12-27T19:56:53.564Z,100654.08
2018-12-27T19:59:23.005Z,100661.27
2018-12-27T20:01:52.460Z,100662.98
2018-12-27T20:04:21.966Z,100661.64
2018-12-27T20:06:51.430Z,100665.19
2018-12-27T20:09:20.841Z,100664.70
2018-12-27T20:11:50.347Z,100662.02
2018-12-27T20:14:19.860Z,100666.39
2018-12-27T20:16:49.381Z,100671.66
2018-12-27T20:19:18.833Z,100670.31
2018-12-27T20:21:48.280Z,100675.55
2018-12-27T20:24:17.893Z,100671.89
2018-12-27T20:26:48.115Z,100670.89
2018-12-27T20:29:17.576Z,100666.86
2018-12-27T20:31:47.218Z,100672.23
2018-12-27T20:34:16.748Z,100673.47
2018-12-27T20:36:48.427Z,100672.61
2018-12-27T20:39:18.114Z,100675.16
2018-12-27T20:41:47.513Z,100680.75
2018-12-27T20:44:17.151Z,100678.59
2018-12-27T20:46:46.781Z,100681.62
2018-12-27T20:49:16.232Z,100679.64
2018-12-27T20:51:45.840Z,100672.59
2018-12-27T20:54:15.372Z,100675.28
2018-12-27T20:56:45.004Z,100683.19
2018-12-27T20:59:14.497Z,100684.42
2018-12-27T21:01:43.934Z,100682.09
2018-12-27T21:04:13.383Z,100682.94
2018-12-27T21:06:42.973Z,100688.69
2018-12-27T21:09:12.463Z,100686.83
2018-12-27T21:11:41.915Z,100679.77
2018-12-27T21:14:11.392Z,100678.77
2018-12-27T21:16:40.809Z,100685.00
2018-12-27T21:19:10.226Z,100683.17
2018-12-27T21:21:39.786Z,100682.21
2018-12-27T21:24:09.215Z,100682.55
2018-12-27T21:26:39.814Z,100683.41
2018-12-27T21:29:09.291Z,100685.23
2018-12-27T21:31:38.981Z,100690.98
2018-12-27T21:34:10.509Z,100689.16
2018-12-27T21:36:40.044Z,100684.27
2018-12-27T21:39:09.760Z,100690.28
2018-12-27T21:41:39.457Z,100690.52
2018-12-27T21:44:09.094Z,100693.92
2018-12-27T21:46:38.586Z,100689.27
2018-12-27T21:49:08.339Z,100687.67
2018-12-27T21:51:37.861Z,100687.90
2018-12-27T21:54:07.328Z,100690.92
2018-12-27T21:56:36.981Z,100691.53
2018-12-27T21:59:06.585Z,100694.11
2018-12-27T22:01:36.196Z,100696.17
2018-12-27T22:04:05.862Z,100690.17
2018-12-27T22:06:37.269Z,100690.03
2018-12-27T22:09:08.289Z,100698.84
2018-12-27T22:11:37.864Z,100703.58
2018-12-27T22:14:07.547Z,100700.75
2018-12-27T22:16:37.041Z,100712.73
2018-12-27T22:19:06.705Z,100703.19
2018-12-27T22:21:36.407Z,100705.24
2018-12-27T22:24:06.048Z,100704.65
2018-12-27T22:26:35.665Z,100697.78
2018-12-27T22:29:05.322Z,100707.05
2018-12-27T22:31:34.905Z,100709.25
2018-12-27T22:34:04.610Z,100712.66
2018-12-27T22:36:34.307Z,100713.88
2018-12-27T22:39:05.219Z,100709.70
2018-12-27T22:41:35.172Z,100711.42
2018-12-27T22:44:04.860Z,100712.63
2018-12-27T22:46:34.491Z,100714.83
2018-12-27T22:49:03.986Z,100708.00
2018-12-27T22:51:33.464Z,100711.52
2018-12-27T22:54:03.082Z,100709.57
2018-12-27T22:56:32.662Z,100711.26
2018-12-27T22:59:02.265Z,100709.42
2018-12-27T23:01:33.029Z,100715.52
2018-12-27T23:04:02.549Z,100710.52
2018-12-27T23:06:32.003Z,100713.55
2018-12-27T23:09:01.652Z,100716.60
2018-12-27T23:11:31.277Z,100726.88
2018-12-27T23:14:00.928Z,100724.55
2018-12-27T23:16:30.684Z,100727.10
2018-12-27T23:19:00.451Z,100731.51
2018-12-27T23:21:29.970Z,100731.36
2018-12-27T23:23:59.496Z,100728.67
2018-12-27T23:26:29.017Z,100729.39
2018-12-27T23:28:58.575Z,100722.66
2018-12-27T23:31:28.540Z,100722.66
2018-12-27T23:33:58.193Z,100727.07
2018-12-27T23:36:27.627Z,100727.41
2018-12-27T23:38:59.775Z,100739.89
2018-12-27T23:41:29.371Z,100739.74
2018-12-27T23:43:59.101Z,100744.78
2018-12-27T23:46:28.835Z,100750.88
2018-12-27T23:48:58.217Z,100746.24
2018-12-27T23:51:27.811Z,100754.76
2018-12-27T23:53:57.342Z,100755.17
2018-12-27T23:56:26.901Z,100750.16
2018-12-27T23:58:56.387Z,100752.36
